AirNav   Pilot Hours Calculator
 
 1711 users online  

LA38 Pelican Seaplane Base
Slidell, Louisiana, USA

GOING TO SLIDELL?


FAA INFORMATION EFFECTIVE 26 JANUARY 2023

Location

FAA Identifier: LA38
Lat/Long: 30-16-01.0000N 089-48-19.0000W
30-16.016667N 089-48.316667W
30.2669444,-89.8052778
(estimated)
Elevation: 0 ft. / 0 m (estimated)
Variation: 01E (2000)
From city: 2 miles NE of SLIDELL, LA
Time zone: UTC -6 (UTC -5 during Daylight Saving Time)
Zip code: 70458

Seaplane Base Operations

Seaplane Base use: Private use. Permission required prior to landing
Activation date: 11/2000
Control tower: no
ARTCC: HOUSTON CENTER
FSS: DE RIDDER FLIGHT SERVICE STATION
Attendance: UNATNDD
Wind indicator: yes
Segmented circle: no

Seaplane Base Communications

UNICOM: 122.8
WX ASOS at ASD (5 nm N): 132.475 (985-643-7263)
WX AWOS-3PT at MJD (15 nm NE): 119.075 (601 798 4136)
WX ASOS at NEW (18 nm SW): PHONE 504-245-4366
WX AWOS-3PT at HSA (19 nm E): 118.375 (228-466-9320)

Nearby radio navigation aids

VOR radial/distance  VOR name  Freq  Var
PCUr187/18.1PICAYUNE VOR/DME113.9505E
HRVr020/27.0HARVEY VORTAC114.1002E
GPTr255/38.6GULFPORT VORTAC109.0002E

 
NDB name  Hdg/Dist  Freq  Var  ID
BOGALUSA175/37.035300WGVB --. ...- -...

Seaplane Base Services

Fuel available: MOGAS

Runway Information

Runway 18W/36W

Dimensions: 2000 x 300 ft. / 610 x 91 m
Surface: water
RUNWAY 18W  RUNWAY 36W
Traffic pattern: leftleft
Obstructions: treestrees

Seaplane Base Ownership and Management from official FAA records

Ownership: Privately-owned
Owner: WENDELL LEWKO
118 ISLAND DRIVE
SLIDELL, LA 70458
Phone (985) 640-0419
Manager: WENDELL LEWKO
118 ISLAND DRIVE
SLIDELL, LA 70458
Phone (985) 640-0419

Seaplane Base Operational Statistics

Aircraft based on the field: 1
Single engine airplanes: 1
    

Additional Remarks

FOR CD CTC NEW ORLEANS APCH AT 504-471-4350.

Instrument Procedures

There are no published instrument procedures at LA38.

Some nearby airports with instrument procedures:

KASD - Slidell Airport (5 nm N)
KMJD - Picayune Municipal Airport (15 nm NE)
KNEW - Lakefront Airport (18 nm SW)
KHSA - Stennis International Airport (19 nm E)
KMSY - Louis Armstrong New Orleans International Airport (29 nm SW)
 
Loc | Ops | Rwys | IFR | FBO | Links
Com | Nav | Svcs | Stats | Notes
Area around LA38 (Pelican Seaplane Base)
 
Road maps at: MapQuest Bing Google
 
Aerial photo
WARNING: Photo may not be current or correct
Aerial photo of LA38 (Pelican Seaplane Base)
Photo courtesy of Port of Slidell
Taken in 2019
looking west.

Do you have a better or more recent aerial photo of Pelican Seaplane Base that you would like to share? If so, please send us your photo.

 
Sectional chart

 
Airport distance calculator
Flying to Pelican Seaplane Base? Find the distance to fly.

From to LA38

Sunrise and sunset
Times for 07-Feb-2023
 Local
(UTC-6)
 Zulu
(UTC)
Morning civil twilight06:2212:22
Sunrise06:4712:47
Sunset17:4023:40
Evening civil twilight18:0500:05

Current date and time
Zulu (UTC)  07-Feb-2023 15:26:45
Local (UTC-6)  07-Feb-2023 09:26:45
 
METAR
KASD 
2nm SE 
071503Z AUTO 09005KT 10SM SCT023 BKN034 OVC090 18/17 A3017 RMK AO2 T01780167
KMJD 
15nm NE 
071515Z AUTO 10005KT 6SM UP BR FEW008 SCT022 BKN048 17/17 A3018 RMK AO2
KNEW 
18nm SW 
071453Z 05003KT 9SM FEW032 SCT042 17/16 A3016 RMK AO2 SLP207 T01670156 53014
KHSA 
19nm E 
071447Z VRB05KT 5SM - RA BR BKN0149 OVC028 17/16 A3017
TAF
KASD 
2nm SE 
071136Z 0712/0812 VRB04KT P6SM VCSH SCT020 BKN060 FM071500 11010KT P6SM VCSH SCT025 BKN050 FM072100 14010KT P6SM VCSH SCT030 BKN080 FM080300 VRB04KT P6SM BKN025 FM080900 13006KT 1SM BR BKN005
KNEW 
18nm SW 
071136Z 0712/0812 10006KT P6SM VCSH SCT020 BKN035 FM071600 14010KT P6SM VCSH SCT020 BKN045 FM080200 12006KT P6SM BKN025 FM080800 12006KT P6SM BKN008 TEMPO 0810/0812 1/2SM FG VV002
NOTAMs
Click for the latest NOTAMs
NOTAMs are issued by the DoD/FAA and will open in a separate window not controlled by AirNav.

 

 
 

Would you like to see your business listed on this page?

 If your business provides an interesting product or service to pilots, flight crews, aircraft, or users of the Pelican Seaplane Base, you should consider listing it here.  To start the listing process, click on the button below
 
Add a business
 

Other Pages about Pelican Seaplane Base

Update a link
 
Copyright © AirNav, LLC. All rights reserved. Privacy Policy  Contact